Time;durP1;ratioP1;P1;durP2;ratioP2;P2;SDS_P1;SDS_P2;PMS_P1;PMS_P2;Temp;Humidity;BMP_temperature;BMP_pressure;BME280_temperature;BME280_humidity;BME280_pressure;Samples;Min_cycle;Max_cycle;Signal;HPM_P1;HPM_P2
2023/06/11 00:00:33;;;;;;;12.45;6.15;;;;;;;;;;5028595;28;20549;-74
2023/06/11 00:02:59;;;;;;;15.93;5.65;;;;;;;;;;5031279;28;20061;-74
2023/06/11 00:05:28;;;;;;;19.15;5.88;;;;;;;;;;5028488;28;20096;-74
2023/06/11 00:08:00;;;;;;;13.77;5.72;;;;;;;;;;5030695;28;20151;-74
2023/06/11 00:10:26;;;;;;;13.40;5.05;;;;;;;;;;5026372;28;20050;-74
2023/06/11 00:12:52;;;;;;;10.25;5.18;;;;;;;;;;5027940;28;20205;-74
2023/06/11 00:15:18;;;;;;;18.02;6.85;;;;;;;;;;5025301;28;20479;-74
2023/06/11 00:17:45;;;;;;;16.35;5.97;;;;;;;;;;5044270;28;20080;-74
2023/06/11 00:20:11;;;;;;;11.98;5.45;;;;;;;;;;5028165;28;20493;-74
2023/06/11 00:22:38;;;;;;;13.15;5.68;;;;;;;;;;5017574;28;20092;-74
2023/06/11 00:25:09;;;;;;;16.08;6.22;;;;;;;;;;5025897;28;20026;-75
2023/06/11 00:27:35;;;;;;;9.82;5.32;;;;;;;;;;5025821;28;20108;-74
2023/06/11 00:30:04;;;;;;;11.52;5.50;;;;;;;;;;5026964;28;20021;-74
2023/06/11 00:32:30;;;;;;;11.43;5.45;;;;;;;;;;5030084;28;20037;-74
2023/06/11 00:34:56;;;;;;;15.18;5.30;;;;;;;;;;5028045;28;20037;-74
2023/06/11 00:37:22;;;;;;;13.38;5.78;;;;;;;;;;5028912;28;20100;-74
2023/06/11 00:39:48;;;;;;;12.90;5.10;;;;;;;;;;5030543;28;20532;-74
2023/06/11 00:42:14;;;;;;;10.05;5.70;;;;;;;;;;5026127;28;20038;-74
2023/06/11 00:44:40;;;;;;;18.45;6.88;;;;;;;;;;5029938;28;20403;-75
2023/06/11 00:47:08;;;;;;;14.85;7.80;;;;;;;;;;5027928;28;20037;-74
2023/06/11 00:49:34;;;;;;;12.10;6.18;;;;;;;;;;5031297;28;20029;-75
2023/06/11 00:52:00;;;;;;;12.43;5.82;;;;;;;;;;5031237;28;20060;-75
2023/06/11 00:54:26;;;;;;;16.83;6.60;;;;;;;;;;5033709;28;20029;-75
2023/06/11 00:56:53;;;;;;;13.02;5.55;;;;;;;;;;5030846;28;20036;-75
2023/06/11 00:59:19;;;;;;;13.25;5.82;;;;;;;;;;5031019;28;20129;-74
2023/06/11 01:01:56;;;;;;;15.05;5.70;;;;;;;;;;5028013;28;20041;-74
2023/06/11 01:04:23;;;;;;;10.20;5.72;;;;;;;;;;5030967;28;20175;-75
2023/06/11 01:06:51;;;;;;;12.30;5.72;;;;;;;;;;5042224;28;20041;-75
2023/06/11 01:09:19;;;;;;;14.63;5.28;;;;;;;;;;5033583;28;20030;-75
2023/06/11 01:11:48;;;;;;;20.17;5.90;;;;;;;;;;5029106;28;20064;-75
2023/06/11 01:14:16;;;;;;;11.43;5.70;;;;;;;;;;5027140;28;20589;-75
2023/06/11 01:16:53;;;;;;;11.48;5.63;;;;;;;;;;5032633;28;20513;-75
2023/06/11 01:19:19;;;;;;;11.60;5.15;;;;;;;;;;5032415;28;20026;-75
2023/06/11 01:21:50;;;;;;;16.38;6.20;;;;;;;;;;5028368;28;20120;-75
2023/06/11 01:24:21;;;;;;;6.22;4.93;;;;;;;;;;5031012;28;20037;-75
2023/06/11 01:26:50;;;;;;;9.50;5.50;;;;;;;;;;5032141;28;20077;-75
2023/06/11 01:29:16;;;;;;;10.75;4.78;;;;;;;;;;5031398;28;20025;-74
2023/06/11 01:31:43;;;;;;;12.32;4.93;;;;;;;;;;5029754;28;20076;-75
2023/06/11 01:34:09;;;;;;;11.07;5.50;;;;;;;;;;5029919;28;20029;-75
2023/06/11 01:36:36;;;;;;;15.15;5.03;;;;;;;;;;5031681;28;20033;-75
2023/06/11 01:39:04;;;;;;;8.88;5.50;;;;;;;;;;5030439;28;20056;-75
2023/06/11 01:41:30;;;;;;;9.68;4.88;;;;;;;;;;5030365;28;20025;-74
2023/06/11 01:43:56;;;;;;;7.68;4.93;;;;;;;;;;5030213;28;20343;-74
2023/06/11 01:46:22;;;;;;;10.30;5.32;;;;;;;;;;5032467;28;20104;-74
2023/06/11 01:48:48;;;;;;;9.43;4.78;;;;;;;;;;5024672;28;20029;-74
2023/06/11 01:51:14;;;;;;;7.32;5.32;;;;;;;;;;5031829;28;20061;-75
2023/06/11 01:53:43;;;;;;;11.23;5.47;;;;;;;;;;5027127;28;20508;-75
2023/06/11 01:56:10;;;;;;;7.25;5.43;;;;;;;;;;5031614;28;20100;-75
2023/06/11 01:58:37;;;;;;;12.32;7.20;;;;;;;;;;5030993;28;20040;-75
2023/06/11 02:01:03;;;;;;;8.68;4.32;;;;;;;;;;5024103;28;20072;-75
2023/06/11 02:03:29;;;;;;;12.32;6.00;;;;;;;;;;5021336;28;20034;-75
2023/06/11 02:05:57;;;;;;;8.50;5.13;;;;;;;;;;5028338;28;20060;-74
2023/06/11 02:08:23;;;;;;;8.20;5.50;;;;;;;;;;5031361;28;20029;-74
2023/06/11 02:10:49;;;;;;;7.10;4.95;;;;;;;;;;5036223;28;20025;-74
2023/06/11 02:13:15;;;;;;;13.07;6.05;;;;;;;;;;5036538;28;20096;-75
2023/06/11 02:15:41;;;;;;;10.63;4.72;;;;;;;;;;5031020;28;20466;-74
2023/06/11 02:18:07;;;;;;;10.43;5.88;;;;;;;;;;5032015;28;20037;-75
2023/06/11 02:20:33;;;;;;;7.60;4.88;;;;;;;;;;5028931;28;20041;-74
2023/06/11 02:22:59;;;;;;;9.73;5.95;;;;;;;;;;5030031;28;20036;-73
2023/06/11 02:25:25;;;;;;;7.55;5.45;;;;;;;;;;5026384;28;20040;-74
2023/06/11 02:27:51;;;;;;;12.75;5.30;;;;;;;;;;5032419;28;20033;-74
2023/06/11 02:30:17;;;;;;;9.15;5.00;;;;;;;;;;5030415;28;20045;-74
2023/06/11 02:32:44;;;;;;;8.15;5.50;;;;;;;;;;5024371;28;20554;-74
2023/06/11 02:35:10;;;;;;;8.48;5.00;;;;;;;;;;5029848;28;20029;-74
2023/06/11 02:37:36;;;;;;;11.18;5.10;;;;;;;;;;5032102;28;20029;-74
2023/06/11 02:40:03;;;;;;;10.88;5.70;;;;;;;;;;5030109;28;20037;-74
2023/06/11 02:42:29;;;;;;;6.53;4.80;;;;;;;;;;5028826;28;20040;-74
2023/06/11 02:44:55;;;;;;;11.10;5.70;;;;;;;;;;5031573;28;20029;-74
2023/06/11 02:47:21;;;;;;;9.77;5.13;;;;;;;;;;5030589;28;20243;-74
2023/06/11 02:49:47;;;;;;;7.32;5.25;;;;;;;;;;5031293;28;20115;-74
2023/06/11 02:52:13;;;;;;;9.02;5.70;;;;;;;;;;5024615;28;20064;-74
2023/06/11 02:54:39;;;;;;;8.13;5.28;;;;;;;;;;5032684;28;20052;-74
2023/06/11 02:57:05;;;;;;;7.57;5.50;;;;;;;;;;5028098;28;20479;-74
2023/06/11 02:59:31;;;;;;;7.55;5.38;;;;;;;;;;5024813;28;20035;-74
2023/06/11 03:01:57;;;;;;;6.30;5.53;;;;;;;;;;5028203;28;20406;-72
2023/06/11 03:04:23;;;;;;;13.20;8.60;;;;;;;;;;5024928;28;20521;-74
2023/06/11 03:06:49;;;;;;;14.35;9.15;;;;;;;;;;5026201;28;20026;-75
2023/06/11 03:09:15;;;;;;;9.55;5.60;;;;;;;;;;5025597;28;20041;-84
2023/06/11 03:11:41;;;;;;;7.13;5.40;;;;;;;;;;5028932;28;20047;-83
2023/06/11 03:14:07;;;;;;;6.80;5.47;;;;;;;;;;5030532;28;20543;-81
2023/06/11 03:16:33;;;;;;;10.95;5.50;;;;;;;;;;5022353;28;20048;-78
2023/06/11 03:18:59;;;;;;;13.02;6.05;;;;;;;;;;5029344;28;20052;-81
2023/06/11 03:21:25;;;;;;;7.75;5.22;;;;;;;;;;5030437;28;20364;-81
2023/06/11 03:23:51;;;;;;;10.48;5.60;;;;;;;;;;5027382;28;20029;-82
2023/06/11 03:26:18;;;;;;;9.55;7.05;;;;;;;;;;5022260;28;20042;-82
2023/06/11 03:28:44;;;;;;;8.18;5.78;;;;;;;;;;5021108;28;20679;-80
2023/06/11 03:31:10;;;;;;;11.52;8.05;;;;;;;;;;5026598;28;20088;-79
2023/06/11 03:33:36;;;;;;;11.48;8.07;;;;;;;;;;5034662;28;20098;-78
2023/06/11 03:36:02;;;;;;;16.80;11.90;;;;;;;;;;5033562;28;20037;-78
2023/06/11 03:38:28;;;;;;;6.75;5.53;;;;;;;;;;5028397;28;20057;-78
2023/06/11 03:40:54;;;;;;;11.27;5.78;;;;;;;;;;5026403;28;20030;-79
2023/06/11 03:43:20;;;;;;;8.18;5.65;;;;;;;;;;5018228;28;20043;-76
2023/06/11 03:45:46;;;;;;;7.20;5.18;;;;;;;;;;5022897;28;20399;-75
2023/06/11 03:48:12;;;;;;;13.48;5.93;;;;;;;;;;5028839;28;20033;-79
2023/06/11 03:50:38;;;;;;;7.85;5.80;;;;;;;;;;5029315;28;20037;-77
2023/06/11 03:53:04;;;;;;;11.05;5.28;;;;;;;;;;5022011;28;20041;-82
2023/06/11 03:55:30;;;;;;;7.22;5.68;;;;;;;;;;5024798;28;20037;-83
2023/06/11 03:57:56;;;;;;;13.70;5.47;;;;;;;;;;5029205;28;20107;-82
2023/06/11 04:00:22;;;;;;;10.93;6.35;;;;;;;;;;5028698;28;20468;-82
2023/06/11 04:02:48;;;;;;;9.15;5.78;;;;;;;;;;5029827;28;20108;-82
2023/06/11 04:05:14;;;;;;;9.75;5.50;;;;;;;;;;5028470;28;20116;-82
2023/06/11 04:07:40;;;;;;;8.20;5.90;;;;;;;;;;5028946;28;20108;-82
2023/06/11 04:10:07;;;;;;;9.68;5.78;;;;;;;;;;5028662;28;20033;-81
2023/06/11 04:12:33;;;;;;;7.70;6.28;;;;;;;;;;5025849;28;21607;-79
2023/06/11 04:14:59;;;;;;;12.27;6.57;;;;;;;;;;5023595;28;20111;-80
2023/06/11 04:17:26;;;;;;;14.23;9.35;;;;;;;;;;5028339;28;20041;-77
2023/06/11 04:19:52;;;;;;;19.80;13.93;;;;;;;;;;5022394;28;20363;-77
2023/06/11 04:22:18;;;;;;;14.73;9.93;;;;;;;;;;5028874;28;20056;-80
2023/06/11 04:24:45;;;;;;;8.63;6.63;;;;;;;;;;5032685;28;21423;-74
2023/06/11 04:27:11;;;;;;;9.30;5.32;;;;;;;;;;5029939;28;20029;-75
2023/06/11 04:29:37;;;;;;;7.72;6.00;;;;;;;;;;5030491;28;20033;-75
2023/06/11 04:32:03;;;;;;;8.25;5.63;;;;;;;;;;5040422;28;20039;-75
2023/06/11 04:34:30;;;;;;;7.72;6.35;;;;;;;;;;5029092;28;20037;-76
2023/06/11 04:36:57;;;;;;;7.30;5.22;;;;;;;;;;5034223;28;20425;-75
2023/06/11 04:39:23;;;;;;;8.25;6.05;;;;;;;;;;5031292;28;20667;-75
2023/06/11 04:41:51;;;;;;;7.00;6.05;;;;;;;;;;5029387;28;20033;-75
2023/06/11 04:44:18;;;;;;;12.63;6.20;;;;;;;;;;5030946;28;20026;-75
2023/06/11 04:46:46;;;;;;;6.70;5.97;;;;;;;;;;5048890;28;20033;-75
2023/06/11 04:49:15;;;;;;;10.88;5.60;;;;;;;;;;5031363;28;20055;-75
2023/06/11 04:51:42;;;;;;;7.25;6.20;;;;;;;;;;5025701;28;20431;-75
2023/06/11 04:54:08;;;;;;;8.13;6.28;;;;;;;;;;5025031;28;20059;-75
2023/06/11 04:56:35;;;;;;;8.05;6.53;;;;;;;;;;5031310;28;20022;-76
2023/06/11 04:59:05;;;;;;;7.28;6.18;;;;;;;;;;5031471;28;20102;-75
2023/06/11 05:01:32;;;;;;;10.10;6.43;;;;;;;;;;5026418;28;20040;-76
2023/06/11 05:03:58;;;;;;;10.27;6.00;;;;;;;;;;5028733;28;20054;-76
2023/06/11 05:06:25;;;;;;;7.45;6.35;;;;;;;;;;5026952;28;20044;-76
2023/06/11 05:08:54;;;;;;;8.10;6.55;;;;;;;;;;5033692;28;20025;-76
2023/06/11 05:11:21;;;;;;;8.75;6.40;;;;;;;;;;5031857;28;20034;-76
2023/06/11 05:13:47;;;;;;;9.32;6.53;;;;;;;;;;5032744;28;20128;-76
2023/06/11 05:16:13;;;;;;;7.38;6.25;;;;;;;;;;5031572;28;20045;-75
2023/06/11 05:18:39;;;;;;;8.02;6.18;;;;;;;;;;5028422;28;20061;-75
2023/06/11 05:21:05;;;;;;;9.23;6.43;;;;;;;;;;5029616;28;20561;-76
2023/06/11 05:23:31;;;;;;;8.98;6.10;;;;;;;;;;5032589;28;20037;-75
2023/06/11 05:26:08;;;;;;;6.68;6.07;;;;;;;;;;5030964;28;20030;-76
2023/06/11 05:28:34;;;;;;;9.38;5.90;;;;;;;;;;5032282;28;20068;-76
2023/06/11 05:31:03;;;;;;;8.82;6.25;;;;;;;;;;5032208;28;20123;-75
2023/06/11 05:33:30;;;;;;;7.80;6.72;;;;;;;;;;5046274;28;20025;-75
2023/06/11 05:35:56;;;;;;;7.13;6.43;;;;;;;;;;5028359;28;20017;-76
2023/06/11 05:38:24;;;;;;;7.03;6.32;;;;;;;;;;5030926;28;20248;-76
2023/06/11 05:40:50;;;;;;;8.52;6.60;;;;;;;;;;5032258;28;20045;-76
2023/06/11 05:43:16;;;;;;;6.70;5.85;;;;;;;;;;5030161;28;20104;-76
2023/06/11 05:45:48;;;;;;;7.07;6.18;;;;;;;;;;5031162;28;20393;-75
2023/06/11 05:48:15;;;;;;;9.50;6.32;;;;;;;;;;5024652;28;20030;-76
2023/06/11 05:50:41;;;;;;;10.90;6.30;;;;;;;;;;5022892;28;20040;-76
2023/06/11 05:53:09;;;;;;;7.68;6.25;;;;;;;;;;5029276;28;20041;-76
2023/06/11 05:55:35;;;;;;;9.32;6.85;;;;;;;;;;5029716;28;20147;-76
2023/06/11 05:58:02;;;;;;;9.80;7.47;;;;;;;;;;5030327;28;20026;-76
2023/06/11 06:00:28;;;;;;;10.82;6.30;;;;;;;;;;5028959;28;20073;-76
2023/06/11 06:02:55;;;;;;;10.68;6.82;;;;;;;;;;5029676;28;20025;-77
2023/06/11 06:05:21;;;;;;;6.68;5.82;;;;;;;;;;5031205;28;20410;-77
2023/06/11 06:07:47;;;;;;;10.32;6.32;;;;;;;;;;5031044;28;20034;-77
2023/06/11 06:10:13;;;;;;;8.60;6.47;;;;;;;;;;5031357;28;20045;-77
2023/06/11 06:12:39;;;;;;;12.32;7.78;;;;;;;;;;5028765;28;20435;-77
2023/06/11 06:15:05;;;;;;;8.00;5.60;;;;;;;;;;5031864;28;20044;-76
2023/06/11 06:17:31;;;;;;;8.23;6.40;;;;;;;;;;5028774;28;20032;-77
2023/06/11 06:19:57;;;;;;;7.47;6.53;;;;;;;;;;5028185;28;20467;-76
2023/06/11 06:22:23;;;;;;;9.70;6.63;;;;;;;;;;5031579;28;20140;-77
2023/06/11 06:24:49;;;;;;;8.88;5.88;;;;;;;;;;5030124;28;20040;-76
2023/06/11 06:27:15;;;;;;;8.52;6.50;;;;;;;;;;5031999;28;20545;-76
2023/06/11 06:29:41;;;;;;;6.93;6.20;;;;;;;;;;5022630;28;20436;-77
2023/06/11 06:32:07;;;;;;;8.25;6.13;;;;;;;;;;5029537;28;20108;-77
2023/06/11 06:34:34;;;;;;;10.10;6.30;;;;;;;;;;5028314;28;20489;-77
2023/06/11 06:37:00;;;;;;;7.13;5.50;;;;;;;;;;5028839;28;20037;-77
2023/06/11 06:39:27;;;;;;;8.30;5.57;;;;;;;;;;5029068;28;20045;-77
2023/06/11 06:41:53;;;;;;;7.70;5.55;;;;;;;;;;5029519;28;20036;-77
2023/06/11 06:44:19;;;;;;;7.53;5.70;;;;;;;;;;5029047;28;20072;-77
2023/06/11 06:46:45;;;;;;;6.07;5.30;;;;;;;;;;5029658;28;20073;-77
2023/06/11 06:49:11;;;;;;;6.70;5.38;;;;;;;;;;5025968;28;20124;-77
2023/06/11 06:51:37;;;;;;;8.15;5.82;;;;;;;;;;5029795;28;20101;-77
2023/06/11 06:54:03;;;;;;;7.15;5.60;;;;;;;;;;5038148;28;20037;-77
2023/06/11 06:56:29;;;;;;;6.47;4.93;;;;;;;;;;5025217;28;20304;-77
2023/06/11 06:58:55;;;;;;;9.25;4.75;;;;;;;;;;5031347;28;20041;-77
2023/06/11 07:01:21;;;;;;;7.00;5.47;;;;;;;;;;5017391;28;20057;-78
2023/06/11 07:03:47;;;;;;;7.07;4.75;;;;;;;;;;5023676;28;20077;-77
2023/06/11 07:06:13;;;;;;;5.68;5.07;;;;;;;;;;5023930;28;20076;-77
2023/06/11 07:08:40;;;;;;;5.50;4.53;;;;;;;;;;5028135;28;20029;-78
2023/06/11 07:11:06;;;;;;;6.18;5.05;;;;;;;;;;5027446;28;20033;-78
2023/06/11 07:13:31;;;;;;;5.25;4.70;;;;;;;;;;5014623;28;20395;-77
2023/06/11 07:15:58;;;;;;;5.75;4.75;;;;;;;;;;5011472;28;20092;-77
2023/06/11 07:18:25;;;;;;;7.97;5.32;;;;;;;;;;5013951;28;20037;-77
2023/06/11 07:20:51;;;;;;;7.55;5.32;;;;;;;;;;5028767;28;20037;-78
2023/06/11 07:23:16;;;;;;;7.68;4.85;;;;;;;;;;5030013;28;20390;-76
2023/06/11 07:25:43;;;;;;;8.68;6.70;;;;;;;;;;5028591;28;20083;-81
2023/06/11 07:28:09;;;;;;;7.80;5.80;;;;;;;;;;5024539;28;20087;-81
2023/06/11 07:30:36;;;;;;;6.10;5.28;;;;;;;;;;5029360;28;20059;-88
2023/06/11 07:33:02;;;;;;;7.88;5.13;;;;;;;;;;5024884;28;20048;-87
2023/06/11 07:35:28;;;;;;;5.65;5.00;;;;;;;;;;5023855;28;20029;-87
2023/06/11 07:37:55;;;;;;;7.75;4.97;;;;;;;;;;5025918;28;20047;-85
2023/06/11 07:40:22;;;;;;;4.68;4.28;;;;;;;;;;5020400;28;20029;-85
2023/06/11 07:42:48;;;;;;;4.53;4.13;;;;;;;;;;5029059;28;20044;-89
2023/06/11 07:45:15;;;;;;;5.20;4.40;;;;;;;;;;5024648;28;20057;-88
2023/06/11 07:47:41;;;;;;;6.00;4.60;;;;;;;;;;5025128;28;20036;-87
2023/06/11 07:50:08;;;;;;;4.85;4.20;;;;;;;;;;5021183;28;20069;-84
2023/06/11 07:52:34;;;;;;;4.90;4.45;;;;;;;;;;5029802;28;20034;-85
2023/06/11 07:55:00;;;;;;;5.03;4.05;;;;;;;;;;5043026;28;20048;-86
2023/06/11 07:57:26;;;;;;;6.95;4.30;;;;;;;;;;5024678;28;20033;-84
2023/06/11 07:59:53;;;;;;;12.32;4.43;;;;;;;;;;5025936;28;20168;-85
2023/06/11 08:02:19;;;;;;;6.70;4.63;;;;;;;;;;5022363;28;20037;-78
2023/06/11 08:04:45;;;;;;;9.15;7.53;;;;;;;;;;5035912;28;20419;-76
2023/06/11 08:07:12;;;;;;;8.13;5.60;;;;;;;;;;5028951;28;20025;-83
2023/06/11 08:09:38;;;;;;;6.97;4.47;;;;;;;;;;5029058;28;20037;-83
2023/06/11 08:12:05;;;;;;;6.20;4.22;;;;;;;;;;5027815;28;20022;-79
2023/06/11 08:14:32;;;;;;;6.15;4.18;;;;;;;;;;5025604;28;20036;-79
2023/06/11 08:16:58;;;;;;;7.43;4.38;;;;;;;;;;5026301;28;20032;-82
2023/06/11 08:19:25;;;;;;;10.93;4.22;;;;;;;;;;5019148;28;20135;-70
2023/06/11 08:21:51;;;;;;;6.97;3.95;;;;;;;;;;5026146;28;20179;-71
2023/06/11 08:24:18;;;;;;;6.05;4.25;;;;;;;;;;5027239;28;20037;-72
2023/06/11 08:26:44;;;;;;;5.88;3.95;;;;;;;;;;5023369;28;20037;-72
2023/06/11 08:29:11;;;;;;;7.35;4.47;;;;;;;;;;5027601;28;20029;-73
2023/06/11 08:31:37;;;;;;;6.15;4.38;;;;;;;;;;5025681;28;20025;-73
2023/06/11 08:34:03;;;;;;;4.90;4.20;;;;;;;;;;5022870;28;20100;-74
2023/06/11 08:36:29;;;;;;;9.50;7.07;;;;;;;;;;5025284;28;20095;-71
2023/06/11 08:38:55;;;;;;;6.38;3.97;;;;;;;;;;5029378;28;20054;-71
2023/06/11 08:41:22;;;;;;;5.78;4.05;;;;;;;;;;5030211;28;20109;-72
2023/06/11 08:43:48;;;;;;;6.25;4.07;;;;;;;;;;5028499;28;20071;-72
2023/06/11 08:46:15;;;;;;;5.70;3.92;;;;;;;;;;5033620;28;20041;-73
2023/06/11 08:48:44;;;;;;;15.25;4.07;;;;;;;;;;5030412;28;20037;-72
2023/06/11 08:51:11;;;;;;;6.90;4.38;;;;;;;;;;5021420;28;20058;-72
2023/06/11 08:53:37;;;;;;;6.32;3.78;;;;;;;;;;5020896;28;20044;-73
2023/06/11 08:56:04;;;;;;;4.47;3.72;;;;;;;;;;5025715;28;20029;-72
2023/06/11 08:58:31;;;;;;;5.25;4.07;;;;;;;;;;5025709;28;20471;-72
2023/06/11 09:00:57;;;;;;;5.03;4.40;;;;;;;;;;5022522;28;20115;-72
2023/06/11 09:03:23;;;;;;;5.75;4.10;;;;;;;;;;5023856;28;20037;-72
2023/06/11 09:05:50;;;;;;;4.18;3.78;;;;;;;;;;5017740;28;20030;-71
2023/06/11 09:08:16;;;;;;;3.97;3.65;;;;;;;;;;5017321;28;20044;-73
2023/06/11 09:10:49;;;;;;;7.00;3.85;;;;;;;;;;5028301;28;20030;-73
2023/06/11 09:13:16;;;;;;;6.43;4.10;;;;;;;;;;5009860;28;20037;-73
2023/06/11 09:15:58;;;;;;;12.43;4.10;;;;;;;;;;5031727;28;20463;-72
2023/06/11 09:18:28;;;;;;;6.50;4.25;;;;;;;;;;5030112;28;20100;-73
2023/06/11 09:20:55;;;;;;;4.60;3.65;;;;;;;;;;5029682;28;20048;-73
2023/06/11 09:23:48;;;;;;;7.75;4.22;;;;;;;;;;5028927;28;20030;-72
2023/06/11 09:26:17;;;;;;;6.82;5.97;;;;;;;;;;5020008;28;20132;-73
2023/06/11 09:28:43;;;;;;;10.30;4.28;;;;;;;;;;5032092;28;20414;-72
2023/06/11 09:31:10;;;;;;;9.35;4.22;;;;;;;;;;5029987;28;20630;-69
2023/06/11 09:33:36;;;;;;;5.88;3.97;;;;;;;;;;5031883;28;20037;-71
2023/06/11 09:36:03;;;;;;;4.82;3.60;;;;;;;;;;5020774;28;20529;-70
2023/06/11 09:38:32;;;;;;;6.78;4.97;;;;;;;;;;5025773;28;20029;-71
2023/06/11 09:40:58;;;;;;;5.22;3.70;;;;;;;;;;5021382;28;20183;-71
2023/06/11 09:43:25;;;;;;;8.98;3.90;;;;;;;;;;5037047;28;20040;-71
2023/06/11 09:45:55;;;;;;;9.35;3.95;;;;;;;;;;5040851;28;20030;-70
2023/06/11 09:48:24;;;;;;;5.70;4.00;;;;;;;;;;5024065;28;20036;-71
2023/06/11 09:50:52;;;;;;;5.72;4.03;;;;;;;;;;5020851;28;20288;-71
2023/06/11 09:53:19;;;;;;;7.10;4.93;;;;;;;;;;5029094;28;20218;-70
2023/06/11 09:55:50;;;;;;;14.90;12.80;;;;;;;;;;5030818;28;20466;-71
2023/06/11 09:58:18;;;;;;;7.15;4.35;;;;;;;;;;5023001;28;20040;-72
2023/06/11 10:00:47;;;;;;;7.75;3.92;;;;;;;;;;5025891;28;20041;-71
2023/06/11 10:03:13;;;;;;;4.50;4.03;;;;;;;;;;5023041;28;20037;-72
2023/06/11 10:05:39;;;;;;;4.22;3.58;;;;;;;;;;5029339;28;20458;-71
2023/06/11 10:08:09;;;;;;;7.85;3.88;;;;;;;;;;5026501;28;20457;-72
2023/06/11 10:10:36;;;;;;;4.82;3.85;;;;;;;;;;5031997;28;20032;-73
2023/06/11 10:13:03;;;;;;;4.20;3.65;;;;;;;;;;5028163;28;20400;-71
2023/06/11 10:15:30;;;;;;;4.93;3.70;;;;;;;;;;5030131;28;20030;-72
2023/06/11 10:17:56;;;;;;;3.97;3.60;;;;;;;;;;5025915;28;20045;-72
2023/06/11 10:20:35;;;;;;;7.70;3.67;;;;;;;;;;5023852;28;20030;-71
2023/06/11 10:23:11;;;;;;;6.22;4.00;;;;;;;;;;5026147;28;20547;-73
2023/06/11 10:25:38;;;;;;;9.05;3.63;;;;;;;;;;5027775;28;20057;-72
2023/06/11 10:28:04;;;;;;;5.72;3.88;;;;;;;;;;5028610;28;20037;-72
2023/06/11 10:30:30;;;;;;;6.57;3.83;;;;;;;;;;5028513;28;20070;-71
2023/06/11 10:32:58;;;;;;;6.82;3.53;;;;;;;;;;5027470;28;20160;-71
2023/06/11 10:35:32;;;;;;;3.55;3.25;;;;;;;;;;5029752;28;20116;-71
2023/06/11 10:38:05;;;;;;;5.78;3.17;;;;;;;;;;5036077;28;20101;-70
2023/06/11 10:40:35;;;;;;;6.95;3.47;;;;;;;;;;5029948;28;20080;-70
2023/06/11 10:43:04;;;;;;;3.75;3.20;;;;;;;;;;5029782;28;20037;-70
2023/06/11 10:45:38;;;;;;;3.78;3.38;;;;;;;;;;5026512;28;20052;-70
2023/06/11 10:48:05;;;;;;;5.28;3.40;;;;;;;;;;5028139;28;20104;-69
2023/06/11 10:50:35;;;;;;;3.55;2.97;;;;;;;;;;5029639;28;20044;-71
2023/06/11 10:53:06;;;;;;;8.18;3.00;;;;;;;;;;5030946;28;20113;-70
2023/06/11 10:55:34;;;;;;;5.20;3.38;;;;;;;;;;5027264;28;20120;-70
2023/06/11 10:58:00;;;;;;;5.13;4.60;;;;;;;;;;5029465;28;20029;-70
2023/06/11 11:00:28;;;;;;;5.43;3.17;;;;;;;;;;5029190;28;20438;-71
2023/06/11 11:02:58;;;;;;;5.20;3.58;;;;;;;;;;5021473;28;20028;-70
2023/06/11 11:05:25;;;;;;;4.80;3.17;;;;;;;;;;5025975;28;20066;-70
2023/06/11 11:07:54;;;;;;;3.63;3.05;;;;;;;;;;5029444;28;20022;-70
2023/06/11 11:10:23;;;;;;;3.67;3.30;;;;;;;;;;5027872;28;20061;-71
2023/06/11 11:12:49;;;;;;;5.97;3.42;;;;;;;;;;5025493;28;20117;-71
2023/06/11 11:15:16;;;;;;;4.55;3.80;;;;;;;;;;5029682;28;20144;-71
2023/06/11 11:17:43;;;;;;;6.38;3.40;;;;;;;;;;5031161;28;20029;-70
2023/06/11 11:20:19;;;;;;;3.67;2.97;;;;;;;;;;5027344;28;20034;-70
2023/06/11 11:22:51;;;;;;;7.50;3.42;;;;;;;;;;5021156;28;20482;-71
2023/06/11 11:25:19;;;;;;;7.38;3.45;;;;;;;;;;5025182;28;20033;-71
2023/06/11 11:27:47;;;;;;;4.30;3.10;;;;;;;;;;5030341;28;20026;-71
2023/06/11 11:30:13;;;;;;;6.38;3.83;;;;;;;;;;5025676;28;20145;-70
2023/06/11 11:32:40;;;;;;;5.30;3.13;;;;;;;;;;5026877;28;20046;-71
2023/06/11 11:35:07;;;;;;;4.45;3.28;;;;;;;;;;5026773;28;20041;-70
2023/06/11 11:37:33;;;;;;;4.68;3.40;;;;;;;;;;5027315;28;20350;-70
2023/06/11 11:40:08;;;;;;;7.25;3.13;;;;;;;;;;5030864;28;20037;-70
2023/06/11 11:42:48;;;;;;;6.43;3.13;;;;;;;;;;5025083;28;20052;-70
2023/06/11 11:45:15;;;;;;;4.45;3.33;;;;;;;;;;5030473;28;20040;-79
2023/06/11 11:47:51;;;;;;;5.07;3.03;;;;;;;;;;5023279;28;20151;-75
2023/06/11 11:50:26;;;;;;;4.43;3.20;;;;;;;;;;5013829;28;20041;-78
2023/06/11 11:53:03;;;;;;;9.18;3.65;;;;;;;;;;5027959;28;20033;-77
2023/06/11 11:55:29;;;;;;;4.43;3.25;;;;;;;;;;5028663;28;20026;-77
2023/06/11 11:58:06;;;;;;;4.95;3.17;;;;;;;;;;5029025;28;20467;-77
2023/06/11 12:00:32;;;;;;;5.25;2.97;;;;;;;;;;5029531;28;20025;-77
2023/06/11 12:02:59;;;;;;;3.30;3.00;;;;;;;;;;5025088;28;20041;-76
2023/06/11 12:05:29;;;;;;;3.22;2.92;;;;;;;;;;5014636;28;20590;-75
2023/06/11 12:07:55;;;;;;;3.90;3.25;;;;;;;;;;5029696;28;20554;-76
2023/06/11 12:10:24;;;;;;;3.50;3.00;;;;;;;;;;5010911;28;20128;-77
2023/06/11 12:12:50;;;;;;;3.38;3.08;;;;;;;;;;5028683;28;20495;-76
2023/06/11 12:15:16;;;;;;;5.55;3.22;;;;;;;;;;5024522;28;20066;-75
2023/06/11 12:17:43;;;;;;;4.90;3.40;;;;;;;;;;5029031;28;20032;-76
2023/06/11 12:20:09;;;;;;;4.65;3.35;;;;;;;;;;5030704;28;20111;-76
2023/06/11 12:22:35;;;;;;;7.05;3.70;;;;;;;;;;5028834;28;20037;-76
2023/06/11 12:25:01;;;;;;;4.22;3.03;;;;;;;;;;5030108;28;20065;-76
2023/06/11 12:27:27;;;;;;;5.05;2.90;;;;;;;;;;5026833;28;20142;-75
2023/06/11 12:29:53;;;;;;;3.42;2.85;;;;;;;;;;5030327;28;20630;-75
2023/06/11 12:32:24;;;;;;;5.50;3.65;;;;;;;;;;5028813;28;20364;-75
2023/06/11 12:34:50;;;;;;;4.28;3.10;;;;;;;;;;5029219;28;20053;-75
2023/06/11 12:37:16;;;;;;;4.65;3.25;;;;;;;;;;5027185;28;20467;-76
2023/06/11 12:39:43;;;;;;;4.63;3.10;;;;;;;;;;5028980;28;20041;-75
2023/06/11 12:42:16;;;;;;;5.68;3.33;;;;;;;;;;5029763;28;20021;-76
2023/06/11 12:44:43;;;;;;;4.45;3.58;;;;;;;;;;5028363;28;20411;-76
2023/06/11 12:47:09;;;;;;;5.30;3.30;;;;;;;;;;5031895;28;20022;-76
2023/06/11 12:49:35;;;;;;;4.80;3.10;;;;;;;;;;5032754;28;20119;-76
2023/06/11 12:52:01;;;;;;;3.70;3.20;;;;;;;;;;5031268;28;20036;-77
2023/06/11 12:54:27;;;;;;;3.60;3.05;;;;;;;;;;5032707;28;20034;-77
2023/06/11 12:56:53;;;;;;;3.92;2.90;;;;;;;;;;5033912;28;20036;-72
2023/06/11 12:59:22;;;;;;;8.82;3.75;;;;;;;;;;5030018;28;20060;-75
2023/06/11 13:01:48;;;;;;;4.18;3.17;;;;;;;;;;5031082;28;20120;-75
2023/06/11 13:04:14;;;;;;;7.63;3.50;;;;;;;;;;5033405;28;20132;-75
2023/06/11 13:06:41;;;;;;;6.90;2.80;;;;;;;;;;5031682;28;20029;-75
2023/06/11 13:09:07;;;;;;;3.95;3.08;;;;;;;;;;5033149;28;20037;-71
2023/06/11 13:11:33;;;;;;;9.35;3.50;;;;;;;;;;5032266;28;20108;-72
2023/06/11 13:14:00;;;;;;;9.38;3.47;;;;;;;;;;5048178;28;20104;-71
2023/06/11 13:16:26;;;;;;;5.32;3.45;;;;;;;;;;5030576;28;20033;-70
2023/06/11 13:18:52;;;;;;;9.02;3.53;;;;;;;;;;5028158;28;20080;-71
2023/06/11 13:21:18;;;;;;;5.38;3.67;;;;;;;;;;5013372;28;20072;-71
2023/06/11 13:23:44;;;;;;;5.32;3.08;;;;;;;;;;5032346;28;20112;-71
2023/06/11 13:26:11;;;;;;;4.03;3.13;;;;;;;;;;5032790;28;20590;-70
2023/06/11 13:28:39;;;;;;;4.78;3.60;;;;;;;;;;5033597;28;20025;-70
2023/06/11 13:31:05;;;;;;;9.80;3.08;;;;;;;;;;5033586;28;20027;-70
2023/06/11 13:33:31;;;;;;;9.32;3.05;;;;;;;;;;5039908;28;20025;-70
2023/06/11 13:35:57;;;;;;;12.20;2.90;;;;;;;;;;5032339;28;20573;-70
2023/06/11 13:38:24;;;;;;;6.45;3.33;;;;;;;;;;5032985;28;20083;-70
2023/06/11 13:40:50;;;;;;;7.03;3.33;;;;;;;;;;5033046;28;20113;-70
2023/06/11 13:43:17;;;;;;;7.68;3.65;;;;;;;;;;5032227;28;20443;-71
2023/06/11 13:45:44;;;;;;;4.38;3.17;;;;;;;;;;5046730;28;20409;-70
2023/06/11 13:48:11;;;;;;;3.55;3.05;;;;;;;;;;5032935;28;20017;-70
2023/06/11 13:50:37;;;;;;;6.72;3.20;;;;;;;;;;5030974;28;20044;-70
2023/06/11 13:53:03;;;;;;;7.47;3.53;;;;;;;;;;5030936;28;20044;-70
2023/06/11 13:55:29;;;;;;;5.38;3.10;;;;;;;;;;5031056;28;20029;-70
2023/06/11 13:57:55;;;;;;;6.38;3.38;;;;;;;;;;5031616;28;20034;-70
2023/06/11 14:00:21;;;;;;;4.82;3.10;;;;;;;;;;5032102;28;20045;-70
2023/06/11 14:02:47;;;;;;;4.22;3.53;;;;;;;;;;5032933;28;20040;-70
2023/06/11 14:05:13;;;;;;;5.30;3.28;;;;;;;;;;5030603;28;20465;-70
2023/06/11 14:07:39;;;;;;;4.97;3.75;;;;;;;;;;5032500;28;20514;-70
2023/06/11 14:10:05;;;;;;;6.00;4.03;;;;;;;;;;5031329;28;20029;-70
2023/06/11 14:12:32;;;;;;;6.85;3.50;;;;;;;;;;5027380;28;20030;-70
2023/06/11 14:14:58;;;;;;;5.85;3.83;;;;;;;;;;5030189;28;20029;-70
2023/06/11 14:17:24;;;;;;;5.60;3.60;;;;;;;;;;5030462;28;20025;-71
2023/06/11 14:19:50;;;;;;;6.00;4.00;;;;;;;;;;5030965;28;20365;-71
2023/06/11 14:22:16;;;;;;;6.60;3.78;;;;;;;;;;5029990;28;20035;-71
2023/06/11 14:24:43;;;;;;;5.30;3.42;;;;;;;;;;5032170;28;20036;-70
2023/06/11 14:27:09;;;;;;;5.63;3.67;;;;;;;;;;5031924;28;20033;-71
2023/06/11 14:29:35;;;;;;;6.75;3.55;;;;;;;;;;5030441;28;20099;-70
2023/06/11 14:32:02;;;;;;;6.97;3.40;;;;;;;;;;5031048;28;20033;-71
2023/06/11 14:34:28;;;;;;;6.05;3.08;;;;;;;;;;5031694;28;20034;-71
2023/06/11 14:36:54;;;;;;;3.28;2.90;;;;;;;;;;5031428;28;20507;-70
2023/06/11 14:39:20;;;;;;;9.40;3.72;;;;;;;;;;5030003;28;20412;-71